General Aviation Weather

Text Reports

Enter one or more of the following location identifiers separated by a space:

Zip Code, Four-Character ICAO or Three-Character IATA airport codes.

METAR - Aviation Routine Weather Report
KPWG - McGregor, Texas
Updated at 9:55 AM GMT on December 18, 2014 (3:55 AM CST):
METAR KPWG 180955Z AUTO 08003KT 2SM OVC002 08/05 A3012 RMK AO1
TAF - Terminal Area Forecast
KPWG - McGregor, Texas
Updated at 9:55 AM GMT on December 18, 2014 (3:55 AM CST):
No TAF is currently available for this location.
Decoded:
No decoded TAF is available.
PIREP - Pilot Weather Report
KPWG - McGregor, Texas
Updated at 9:55 AM GMT on December 18, 2014 (3:55 AM CST):
No PIREP is currently available for this location.
AIRMET - Airmens Meteorological Information
KPWG - McGregor, Texas
Updated at 9:55 AM GMT on December 18, 2014 (3:55 AM CST):
No AIRMET is currently available for this location.
SIGMET - Significant Meteorological Information
KPWG - McGregor, Texas
Updated at 9:55 AM GMT on December 18, 2014 (3:55 AM CST):
No SIGMET is currently available for this location.
NOTAM - Notice to Airmen
KPWG - McGregor, Texas
Updated at 9:55 AM GMT on December 18, 2014 (3:55 AM CST):
No NOTAM is currently available for this location.
Forecast Area
KPWG - McGregor, Texas
Updated at 9:55 AM GMT on December 18, 2014 (3:55 AM CST):
No NOTAM is currently available for this location.
Aviation Weather Maps